createdAt,value
2023-02-28T00:01:00.897Z,13.02
2023-02-28T00:03:30.791Z,14.90
2023-02-28T00:06:03.219Z,14.02
2023-02-28T00:08:33.131Z,12.60
2023-02-28T00:11:06.194Z,13.00
2023-02-28T00:13:38.199Z,14.68
2023-02-28T00:16:11.629Z,13.90
2023-02-28T00:18:41.798Z,15.20
2023-02-28T00:21:14.266Z,13.48
2023-02-28T00:23:44.858Z,13.23
2023-02-28T00:26:15.130Z,15.57
2023-02-28T00:28:45.122Z,14.52
2023-02-28T00:31:15.039Z,14.43
2023-02-28T00:33:44.926Z,13.75
2023-02-28T00:36:17.430Z,15.15
2023-02-28T00:38:47.332Z,11.98
2023-02-28T00:41:17.226Z,14.30
2023-02-28T00:43:47.139Z,12.27
2023-02-28T00:46:17.076Z,14.32
2023-02-28T00:48:47.062Z,12.80
2023-02-28T00:51:19.504Z,13.88
2023-02-28T00:53:49.353Z,18.50
2023-02-28T00:56:19.279Z,13.85
2023-02-28T00:58:49.178Z,14.68
2023-02-28T01:01:19.044Z,13.18
2023-02-28T01:03:48.863Z,12.73
2023-02-28T01:06:21.326Z,13.50
2023-02-28T01:08:51.241Z,17.15
2023-02-28T01:11:21.991Z,15.77
2023-02-28T01:13:52.114Z,12.85
2023-02-28T01:16:22.533Z,15.63
2023-02-28T01:18:52.470Z,11.35
2023-02-28T01:21:25.852Z,13.13
2023-02-28T01:23:55.799Z,11.60
2023-02-28T01:26:26.642Z,14.50
2023-02-28T01:28:57.537Z,15.23
2023-02-28T01:31:28.510Z,14.00
2023-02-28T01:33:58.573Z,13.27
2023-02-28T01:36:31.030Z,13.32
2023-02-28T01:39:01.174Z,11.35
2023-02-28T01:41:34.556Z,14.80
2023-02-28T01:44:08.541Z,13.65
2023-02-28T01:46:41.273Z,13.07
2023-02-28T01:49:17.418Z,14.15
2023-02-28T01:51:55.744Z,13.70
2023-02-28T01:54:29.686Z,12.27
2023-02-28T01:57:05.166Z,11.52
2023-02-28T01:59:41.550Z,15.30
2023-02-28T02:02:11.649Z,14.68
2023-02-28T02:04:49.648Z,17.33
2023-02-28T02:07:22.453Z,14.80
2023-02-28T02:09:52.514Z,12.40
2023-02-28T02:12:35.213Z,14.25
2023-02-28T02:15:13.409Z,11.77
2023-02-28T02:17:47.059Z,16.92
2023-02-28T02:21:02.779Z,15.38
2023-02-28T02:24:25.911Z,14.57
2023-02-28T02:27:07.806Z,12.55
2023-02-28T02:30:03.806Z,16.90
2023-02-28T02:33:12.386Z,13.43
2023-02-28T02:35:50.986Z,11.88
2023-02-28T02:38:33.789Z,12.90
2023-02-28T02:41:11.435Z,16.60
2023-02-28T02:43:48.439Z,15.38
2023-02-28T02:46:23.887Z,16.05
2023-02-28T02:48:55.952Z,20.77
2023-02-28T02:51:30.276Z,14.40
2023-02-28T02:54:07.807Z,15.68
2023-02-28T02:56:40.094Z,15.85
2023-02-28T02:59:15.469Z,14.48
2023-02-28T03:01:46.537Z,15.75
2023-02-28T03:04:22.214Z,13.40
2023-02-28T03:06:56.862Z,16.00
2023-02-28T03:11:59.829Z,17.70
2023-02-28T03:14:44.741Z,16.48
2023-02-28T03:17:48.994Z,16.13
2023-02-28T03:20:31.888Z,13.35
2023-02-28T03:23:17.339Z,16.33
2023-02-28T03:25:59.954Z,14.48
2023-02-28T03:28:38.108Z,14.45
2023-02-28T03:31:16.366Z,19.02
2023-02-28T03:33:56.012Z,16.58
2023-02-28T03:36:31.711Z,13.90
2023-02-28T03:39:09.021Z,16.25
2023-02-28T03:41:45.729Z,17.10
2023-02-28T03:44:21.154Z,15.45
2023-02-28T03:46:57.038Z,17.55
2023-02-28T03:49:32.323Z,16.15
2023-02-28T03:52:06.429Z,20.48
2023-02-28T03:54:46.715Z,15.25
2023-02-28T03:57:24.310Z,15.57
2023-02-28T04:00:00.782Z,20.13
2023-02-28T04:02:31.587Z,16.45
2023-02-28T04:05:01.455Z,17.27
2023-02-28T04:07:33.826Z,18.42
2023-02-28T04:10:07.430Z,15.15
2023-02-28T04:12:37.307Z,16.05
2023-02-28T04:15:09.215Z,16.45
2023-02-28T04:17:39.085Z,16.75
2023-02-28T04:20:12.784Z,16.25
2023-02-28T04:22:42.762Z,17.15
2023-02-28T04:25:15.349Z,17.00
2023-02-28T04:27:45.629Z,13.57
2023-02-28T04:30:16.379Z,17.98
2023-02-28T04:32:46.432Z,16.95
2023-02-28T04:35:16.784Z,18.67
2023-02-28T04:37:46.697Z,20.17
2023-02-28T04:40:19.872Z,17.83
2023-02-28T04:42:49.734Z,18.83
2023-02-28T04:45:19.842Z,18.23
2023-02-28T04:47:49.726Z,18.42
2023-02-28T04:50:19.885Z,19.58
2023-02-28T04:52:49.984Z,26.00
2023-02-28T04:55:22.499Z,25.40
2023-02-28T04:57:52.338Z,22.70
2023-02-28T05:00:23.294Z,23.77
2023-02-28T05:02:53.142Z,21.55
2023-02-28T05:05:23.224Z,25.75
2023-02-28T05:07:54.562Z,26.17
2023-02-28T05:10:27.110Z,23.20
2023-02-28T05:12:56.967Z,24.40
2023-02-28T05:15:27.239Z,22.35
2023-02-28T05:17:57.262Z,20.08
2023-02-28T05:20:27.120Z,23.58
2023-02-28T05:22:56.961Z,18.08
2023-02-28T05:25:29.661Z,28.50
2023-02-28T05:28:00.049Z,40.75
2023-02-28T05:30:31.043Z,49.50
2023-02-28T05:33:01.325Z,71.25
2023-02-28T05:35:31.234Z,82.28
2023-02-28T05:38:01.134Z,41.42
2023-02-28T05:40:33.614Z,33.70
2023-02-28T05:43:03.568Z,46.05
2023-02-28T05:45:33.487Z,69.32
2023-02-28T05:48:03.360Z,41.00
2023-02-28T05:50:33.204Z,62.70
2023-02-28T05:53:03.098Z,46.58
2023-02-28T05:55:37.009Z,26.88
2023-02-28T05:58:06.890Z,33.35
2023-02-28T06:00:36.757Z,29.00
2023-02-28T06:03:06.792Z,28.05
2023-02-28T06:05:36.746Z,25.05
2023-02-28T06:08:07.970Z,28.88
2023-02-28T06:10:40.773Z,24.40
2023-02-28T06:13:10.622Z,22.98
2023-02-28T06:15:40.459Z,26.30
2023-02-28T06:18:10.358Z,19.25
2023-02-28T06:20:40.280Z,22.35
2023-02-28T06:23:10.169Z,16.52
2023-02-28T06:25:42.583Z,16.67
2023-02-28T06:28:12.426Z,17.90
2023-02-28T06:30:43.596Z,16.38
2023-02-28T06:33:14.819Z,15.57
2023-02-28T06:35:47.920Z,17.27
2023-02-28T06:38:19.163Z,26.95
2023-02-28T06:40:57.507Z,19.40
2023-02-28T06:43:28.488Z,20.45
2023-02-28T06:45:59.224Z,23.08
2023-02-28T06:48:30.916Z,20.00
2023-02-28T06:51:07.401Z,25.38
2023-02-28T06:53:38.133Z,19.92
2023-02-28T06:56:13.139Z,21.83
2023-02-28T06:58:43.542Z,24.00
2023-02-28T07:01:13.639Z,21.85
2023-02-28T07:03:43.690Z,20.85
2023-02-28T07:06:13.625Z,22.35
2023-02-28T07:08:44.000Z,22.38
2023-02-28T07:11:16.467Z,20.25
2023-02-28T07:13:47.661Z,18.30
2023-02-28T07:16:17.697Z,15.80
2023-02-28T07:18:47.603Z,19.35
2023-02-28T07:21:18.394Z,20.83
2023-02-28T07:23:48.507Z,22.55
2023-02-28T07:26:22.603Z,17.27
2023-02-28T07:28:53.918Z,21.33
2023-02-28T07:31:23.876Z,20.65
2023-02-28T07:33:54.965Z,23.77
2023-02-28T07:36:24.789Z,23.42
2023-02-28T07:38:54.626Z,19.73
2023-02-28T07:41:29.137Z,24.05
2023-02-28T07:46:36.591Z,23.80
2023-02-28T07:49:07.729Z,20.27
2023-02-28T07:51:37.629Z,21.00
2023-02-28T07:54:08.805Z,22.20
2023-02-28T07:56:41.265Z,22.05
2023-02-28T07:59:11.113Z,21.08
2023-02-28T08:01:41.047Z,20.50
2023-02-28T08:04:11.031Z,21.08
2023-02-28T08:06:40.914Z,21.90
2023-02-28T08:09:10.914Z,19.73
2023-02-28T08:11:43.331Z,24.73
2023-02-28T08:14:13.330Z,20.98
2023-02-28T08:16:44.003Z,26.38
2023-02-28T08:19:13.905Z,16.83
2023-02-28T08:21:43.888Z,19.10
2023-02-28T08:24:13.735Z,18.83
2023-02-28T08:26:46.233Z,16.90
2023-02-28T08:29:16.203Z,19.83
2023-02-28T08:31:46.599Z,18.70
2023-02-28T08:34:19.500Z,23.05
2023-02-28T08:36:49.358Z,19.50
2023-02-28T08:39:21.060Z,20.50
2023-02-28T08:42:06.693Z,17.73
2023-02-28T08:44:37.531Z,16.63
2023-02-28T08:47:07.578Z,17.90
2023-02-28T08:49:38.488Z,13.82
2023-02-28T08:52:08.386Z,15.45
2023-02-28T08:54:39.048Z,18.05
2023-02-28T08:57:11.605Z,19.52
2023-02-28T08:59:41.668Z,13.65
2023-02-28T09:02:15.475Z,14.82
2023-02-28T09:04:46.465Z,16.27
2023-02-28T09:07:16.489Z,15.30
2023-02-28T09:09:55.641Z,15.63
2023-02-28T09:12:30.389Z,13.82
2023-02-28T09:17:30.837Z,11.45
2023-02-28T09:20:01.231Z,15.30
2023-02-28T09:22:31.122Z,16.38
2023-02-28T09:25:00.986Z,12.88
2023-02-28T09:27:33.465Z,10.75
2023-02-28T09:30:03.348Z,13.88
2023-02-28T09:32:33.235Z,13.15
2023-02-28T09:35:03.057Z,8.48
2023-02-28T09:37:32.902Z,8.60
2023-02-28T09:40:03.341Z,10.00
2023-02-28T09:42:37.921Z,9.93
2023-02-28T09:45:19.803Z,9.43
2023-02-28T09:47:52.744Z,12.48
2023-02-28T09:50:34.059Z,12.68
2023-02-28T09:53:10.004Z,12.95
2023-02-28T09:55:47.253Z,6.90
2023-02-28T09:58:31.560Z,8.00
2023-02-28T10:01:10.615Z,7.97
2023-02-28T10:03:44.013Z,7.90
2023-02-28T10:06:21.052Z,7.78
2023-02-28T10:09:02.489Z,5.88
2023-02-28T10:11:33.628Z,6.10
2023-02-28T10:14:14.487Z,7.38
2023-02-28T10:16:53.081Z,6.82
2023-02-28T10:19:28.558Z,9.23
2023-02-28T10:22:03.213Z,7.47
2023-02-28T10:24:40.032Z,8.23
2023-02-28T10:27:18.140Z,8.10
2023-02-28T10:29:53.682Z,7.05
2023-02-28T10:32:25.571Z,6.72
2023-02-28T10:35:00.831Z,8.35
2023-02-28T10:37:32.672Z,8.98
2023-02-28T10:40:02.703Z,7.30
2023-02-28T10:42:39.875Z,6.30
2023-02-28T10:45:16.859Z,8.57
2023-02-28T10:47:56.510Z,7.03
2023-02-28T10:50:41.828Z,7.85
2023-02-28T10:53:57.613Z,7.65
2023-02-28T10:56:31.897Z,9.57
2023-02-28T10:59:04.596Z,6.82
2023-02-28T11:01:46.498Z,7.82
2023-02-28T11:04:36.963Z,8.45
2023-02-28T11:07:09.812Z,7.40
2023-02-28T11:09:44.412Z,6.30
2023-02-28T11:12:26.563Z,6.40
2023-02-28T11:14:59.900Z,7.53
2023-02-28T11:17:35.379Z,10.45
2023-02-28T11:20:09.092Z,9.38
2023-02-28T11:22:43.710Z,6.93
2023-02-28T11:27:52.727Z,7.63
2023-02-28T11:30:37.666Z,6.13
2023-02-28T11:33:32.090Z,11.95
2023-02-28T11:36:07.019Z,6.00
2023-02-28T11:38:39.479Z,7.97
2023-02-28T11:41:41.321Z,8.73
2023-02-28T11:44:43.276Z,5.97
2023-02-28T11:47:21.330Z,6.60
2023-02-28T11:50:22.608Z,7.95
2023-02-28T11:52:57.243Z,7.72
2023-02-28T11:55:31.398Z,9.07
2023-02-28T11:58:21.023Z,9.77
2023-02-28T12:01:10.215Z,8.57
2023-02-28T12:03:51.016Z,8.10
2023-02-28T12:06:30.672Z,8.07
2023-02-28T12:09:17.320Z,8.27
2023-02-28T12:11:56.832Z,9.38
2023-02-28T12:14:57.153Z,8.13
2023-02-28T12:17:46.334Z,7.25
2023-02-28T12:20:30.192Z,8.25
2023-02-28T12:23:25.851Z,8.18
2023-02-28T12:26:06.841Z,8.27
2023-02-28T12:28:42.436Z,10.20
2023-02-28T12:31:20.018Z,7.97
2023-02-28T12:33:56.712Z,9.02
2023-02-28T12:36:28.472Z,8.73
2023-02-28T12:39:06.961Z,13.93
2023-02-28T12:41:45.614Z,9.93
2023-02-28T12:44:21.765Z,7.60
2023-02-28T12:46:55.914Z,8.45
2023-02-28T12:49:32.652Z,7.28
2023-02-28T12:52:04.663Z,8.65
2023-02-28T12:54:46.186Z,11.43
2023-02-28T12:57:22.551Z,10.80
2023-02-28T12:59:57.015Z,10.35
2023-02-28T13:03:36.757Z,7.65
2023-02-28T13:06:33.284Z,10.02
2023-02-28T13:09:16.349Z,9.23
2023-02-28T13:11:52.131Z,8.82
2023-02-28T13:14:31.469Z,8.80
2023-02-28T13:17:14.287Z,9.95
2023-02-28T13:19:48.786Z,9.40
2023-02-28T13:22:41.711Z,8.90
2023-02-28T13:26:00.319Z,9.02
2023-02-28T13:29:23.965Z,10.45
2023-02-28T13:32:44.906Z,11.07
2023-02-28T13:35:41.280Z,9.25
2023-02-28T13:38:27.149Z,9.73
2023-02-28T13:40:57.091Z,7.43
2023-02-28T13:44:08.324Z,9.52
2023-02-28T13:47:01.622Z,8.13
2023-02-28T13:49:33.678Z,7.40
2023-02-28T13:52:18.847Z,8.18
2023-02-28T13:57:46.000Z,8.05
2023-02-28T14:00:34.446Z,7.93
2023-02-28T14:03:26.771Z,7.68
2023-02-28T14:06:26.533Z,8.95
2023-02-28T14:09:04.297Z,8.38
2023-02-28T14:11:37.597Z,8.13
2023-02-28T14:14:09.638Z,8.55
2023-02-28T14:16:48.043Z,9.05
2023-02-28T14:19:23.941Z,6.55
2023-02-28T14:22:11.756Z,9.38
2023-02-28T14:25:18.832Z,8.98
2023-02-28T14:27:54.243Z,8.20
2023-02-28T14:30:56.123Z,9.88
2023-02-28T14:33:57.919Z,8.00
2023-02-28T14:36:34.433Z,9.10
2023-02-28T14:39:09.139Z,7.93
2023-02-28T14:44:20.443Z,7.97
2023-02-28T14:46:54.330Z,13.35
2023-02-28T14:49:32.324Z,9.43
2023-02-28T14:52:17.070Z,8.98
2023-02-28T14:54:48.108Z,7.78
2023-02-28T14:57:30.205Z,10.32
2023-02-28T15:00:12.634Z,8.95
2023-02-28T15:02:44.036Z,11.82
2023-02-28T15:05:31.991Z,14.75
2023-02-28T15:08:10.183Z,11.98
2023-02-28T15:10:41.220Z,13.88
2023-02-28T15:13:16.695Z,11.27
2023-02-28T15:16:02.012Z,10.38
2023-02-28T15:18:42.675Z,9.13
2023-02-28T15:21:19.130Z,10.90
2023-02-28T15:23:53.136Z,9.73
2023-02-28T15:26:28.350Z,10.03
2023-02-28T15:29:03.526Z,9.65
2023-02-28T15:31:55.428Z,10.95
2023-02-28T15:34:43.152Z,12.02
2023-02-28T15:37:43.593Z,9.20
2023-02-28T15:40:27.714Z,12.43
2023-02-28T15:43:10.233Z,9.77
2023-02-28T15:45:45.020Z,9.73
2023-02-28T15:48:22.847Z,11.05
2023-02-28T15:50:56.506Z,8.80
2023-02-28T15:53:33.235Z,9.23
2023-02-28T15:56:06.882Z,9.80
2023-02-28T15:58:39.197Z,11.60
2023-02-28T16:01:24.258Z,9.73
2023-02-28T16:06:45.493Z,8.38
2023-02-28T16:09:20.273Z,10.35
2023-02-28T16:14:25.549Z,12.00
2023-02-28T16:16:58.297Z,12.07
2023-02-28T16:19:28.447Z,9.68
2023-02-28T16:21:58.584Z,12.20
2023-02-28T16:24:31.446Z,9.70
2023-02-28T16:27:01.743Z,9.25
2023-02-28T16:29:35.701Z,10.23
2023-02-28T16:32:08.338Z,11.18
2023-02-28T16:34:38.400Z,13.15
2023-02-28T16:37:14.673Z,11.60
2023-02-28T16:39:50.935Z,14.48
2023-02-28T16:42:26.261Z,14.60
2023-02-28T16:44:57.265Z,13.57
2023-02-28T16:47:27.811Z,15.75
2023-02-28T16:49:57.905Z,15.15
2023-02-28T16:52:27.880Z,17.45
2023-02-28T16:55:01.239Z,20.67
2023-02-28T16:57:32.983Z,22.50
2023-02-28T17:00:03.760Z,18.65
2023-02-28T17:02:33.838Z,14.90
2023-02-28T17:05:04.039Z,21.85
2023-02-28T17:07:34.377Z,16.52
2023-02-28T17:10:16.240Z,18.80
2023-02-28T17:12:46.350Z,20.67
2023-02-28T17:15:18.758Z,24.40
2023-02-28T17:17:49.842Z,21.30
2023-02-28T17:20:23.437Z,20.45
2023-02-28T17:22:53.917Z,20.83
2023-02-28T17:25:27.483Z,19.77
2023-02-28T17:27:57.375Z,32.03
2023-02-28T17:30:30.335Z,39.55
2023-02-28T17:33:00.589Z,32.83
2023-02-28T17:35:30.566Z,28.70
2023-02-28T17:38:00.446Z,30.27
2023-02-28T17:40:34.901Z,30.30
2023-02-28T17:43:04.806Z,27.42
2023-02-28T17:45:35.743Z,25.48
2023-02-28T17:48:06.042Z,24.40
2023-02-28T17:50:36.110Z,23.45
2023-02-28T17:53:05.988Z,20.92
2023-02-28T17:55:38.928Z,23.50
2023-02-28T17:58:08.844Z,26.40
2023-02-28T18:00:39.114Z,26.75
2023-02-28T18:03:09.181Z,27.48
2023-02-28T18:05:39.452Z,20.35
2023-02-28T18:08:09.714Z,24.27
2023-02-28T18:10:42.204Z,32.08
2023-02-28T18:13:13.619Z,29.27
2023-02-28T18:15:43.685Z,27.00
2023-02-28T18:18:13.645Z,33.38
2023-02-28T18:20:43.535Z,30.40
2023-02-28T18:23:13.448Z,28.67
2023-02-28T18:25:45.919Z,28.90
2023-02-28T18:28:15.746Z,30.27
2023-02-28T18:30:45.644Z,48.53
2023-02-28T18:33:15.492Z,35.25
2023-02-28T18:35:45.554Z,44.03
2023-02-28T18:38:19.336Z,41.95
2023-02-28T18:41:01.979Z,49.70
2023-02-28T18:43:34.247Z,42.15
2023-02-28T18:46:07.993Z,47.63
2023-02-28T18:48:38.198Z,57.17
2023-02-28T18:51:12.631Z,45.10
2023-02-28T18:53:44.402Z,49.75
2023-02-28T18:56:19.309Z,43.20
2023-02-28T18:58:49.670Z,61.33
2023-02-28T19:01:21.803Z,103.65
2023-02-28T19:03:53.625Z,82.45
2023-02-28T19:06:23.534Z,84.13
2023-02-28T19:08:56.821Z,65.45
2023-02-28T19:11:29.552Z,53.08
2023-02-28T19:13:59.753Z,37.00
2023-02-28T19:16:30.930Z,42.42
2023-02-28T19:19:01.071Z,34.67
2023-02-28T19:21:30.982Z,31.25
2023-02-28T19:24:00.825Z,30.38
2023-02-28T19:26:33.310Z,33.67
2023-02-28T19:29:06.048Z,41.53
2023-02-28T19:31:36.127Z,35.25
2023-02-28T19:34:06.087Z,35.53
2023-02-28T19:36:36.015Z,61.47
2023-02-28T19:39:05.993Z,63.05
2023-02-28T19:41:38.424Z,62.33
2023-02-28T19:44:08.425Z,66.53
2023-02-28T19:46:38.668Z,67.70
2023-02-28T19:49:08.523Z,74.70
2023-02-28T19:51:38.383Z,69.20
2023-02-28T19:54:08.383Z,62.47
2023-02-28T19:56:40.815Z,55.80
2023-02-28T19:59:21.063Z,56.00
2023-02-28T20:01:54.601Z,56.15
2023-02-28T20:04:24.945Z,56.85
2023-02-28T20:06:55.078Z,49.83
2023-02-28T20:09:25.080Z,47.83
2023-02-28T20:11:59.519Z,49.58
2023-02-28T20:14:29.878Z,47.47
2023-02-28T20:16:59.915Z,68.80
2023-02-28T20:19:30.098Z,86.70
2023-02-28T20:22:01.084Z,91.60
2023-02-28T20:24:31.294Z,87.38
2023-02-28T20:27:03.993Z,80.28
2023-02-28T20:29:33.939Z,75.75
2023-02-28T20:32:04.017Z,60.85
2023-02-28T20:34:33.869Z,59.88
2023-02-28T20:37:03.720Z,54.80
2023-02-28T20:39:33.779Z,44.78
2023-02-28T20:42:07.324Z,46.55
2023-02-28T20:44:37.208Z,41.22
2023-02-28T20:47:07.231Z,42.45
2023-02-28T20:49:37.095Z,35.13
2023-02-28T20:52:07.223Z,34.05
2023-02-28T20:54:38.286Z,34.70
2023-02-28T20:57:10.837Z,35.33
2023-02-28T20:59:42.049Z,31.38
2023-02-28T21:02:17.927Z,26.60
2023-02-28T21:04:48.053Z,30.80
2023-02-28T21:07:18.070Z,32.30
2023-02-28T21:09:47.888Z,30.27
2023-02-28T21:12:20.334Z,22.88
2023-02-28T21:14:50.513Z,24.52
2023-02-28T21:17:20.364Z,29.95
2023-02-28T21:19:50.202Z,24.27
2023-02-28T21:22:20.047Z,22.45
2023-02-28T21:24:49.874Z,29.98
2023-02-28T21:27:22.315Z,29.42
2023-02-28T21:29:52.138Z,27.40
2023-02-28T21:32:22.033Z,29.05
2023-02-28T21:34:52.461Z,31.73
2023-02-28T21:37:22.339Z,28.83
2023-02-28T21:39:52.234Z,23.73
2023-02-28T21:42:24.802Z,29.20
2023-02-28T21:44:57.643Z,35.38
2023-02-28T21:47:27.867Z,30.50
2023-02-28T21:49:57.704Z,34.50
2023-02-28T21:52:27.642Z,33.05
2023-02-28T21:54:57.470Z,34.28
2023-02-28T21:57:30.495Z,42.70
2023-02-28T22:00:00.534Z,34.55
2023-02-28T22:02:30.540Z,32.78
2023-02-28T22:05:03.487Z,31.90
2023-02-28T22:07:33.320Z,29.27
2023-02-28T22:10:03.242Z,28.23
2023-02-28T22:12:35.832Z,27.23
2023-02-28T22:15:06.122Z,26.52
2023-02-28T22:17:36.925Z,31.15
2023-02-28T22:20:07.952Z,22.33
2023-02-28T22:22:37.800Z,25.15
2023-02-28T22:25:09.846Z,24.40
2023-02-28T22:27:42.261Z,26.08
2023-02-28T22:30:14.507Z,28.65
2023-02-28T22:32:44.425Z,23.85
2023-02-28T22:35:14.289Z,25.17
2023-02-28T22:37:44.417Z,27.17
2023-02-28T22:40:16.138Z,23.42
2023-02-28T22:42:48.548Z,20.85
2023-02-28T22:45:18.600Z,24.20
2023-02-28T22:47:51.200Z,21.92
2023-02-28T22:50:21.452Z,25.17
2023-02-28T22:52:51.906Z,23.58
2023-02-28T22:55:21.912Z,26.05
2023-02-28T22:57:54.519Z,24.52
2023-02-28T23:00:25.140Z,22.77
2023-02-28T23:02:55.031Z,27.65
2023-02-28T23:05:24.885Z,23.67
2023-02-28T23:07:54.740Z,24.23
2023-02-28T23:10:24.823Z,27.63
2023-02-28T23:12:57.242Z,25.00
2023-02-28T23:15:27.224Z,20.73
2023-02-28T23:17:57.342Z,21.83
2023-02-28T23:20:27.248Z,24.60
2023-02-28T23:22:57.220Z,22.70
2023-02-28T23:25:27.100Z,22.10
2023-02-28T23:27:59.732Z,21.80
2023-02-28T23:30:29.583Z,20.33
2023-02-28T23:32:59.441Z,21.17
2023-02-28T23:35:29.325Z,23.27
2023-02-28T23:38:00.420Z,25.17
2023-02-28T23:40:30.512Z,27.40
2023-02-28T23:43:02.940Z,26.63
2023-02-28T23:45:32.861Z,21.85
2023-02-28T23:48:02.741Z,21.38
2023-02-28T23:50:32.617Z,20.98
2023-02-28T23:53:02.481Z,23.92
2023-02-28T23:55:32.346Z,23.30
2023-02-28T23:58:05.039Z,28.20
